SYN002 ESGG-ENBR
Flight info
| Callsign | SYN002 |
|---|---|
| Flight time | 0h 57m |
| Altitude | 36000 |
| Route | DETNA DCT ARTOR DCT TITUX DCT PESUR |
| Aircraft | BCS3/M-SBDE2E3GIRWXY/LB1 |
Departure
| Time | 2026-05-06 18:07 |
|---|---|
| Airport | Göteborg Landvetter Airport (ESGG) |
Arrival
| Time | 2026-05-06 19:04 |
|---|---|
| Airport | Bergen Airport, Flesland (ENBR) |
| Time | Latitude | Longitude | Altitude | Speed | Heading |
|---|---|---|---|---|---|
| 2026-05-06 17:34 | 57.66852 | 12.29376 | 511 ft | 0 kts | 114° |
| 2026-05-06 17:55 | 57.66855 | 12.29363 | 511 ft | 2 kts | 114° |
| 2026-05-06 17:55 | 57.66862 | 12.29333 | 511 ft | 3 kts | 104° |
| 2026-05-06 17:56 | 57.66864 | 12.29301 | 511 ft | 3 kts | 76° |
| 2026-05-06 17:56 | 57.66857 | 12.29271 | 511 ft | 2 kts | 47° |
| 2026-05-06 17:56 | 57.66846 | 12.29254 | 511 ft | 0 kts | 26° |
| 2026-05-06 18:00 | 57.66852 | 12.29259 | 511 ft | 2 kts | 25° |
| 2026-05-06 18:01 | 57.66874 | 12.29272 | 511 ft | 4 kts | 13° |
| 2026-05-06 18:01 | 57.66909 | 12.29290 | 511 ft | 6 kts | 20° |
| 2026-05-06 18:01 | 57.66953 | 12.29321 | 512 ft | 4 kts | 4° |
| 2026-05-06 18:01 | 57.66980 | 12.29293 | 512 ft | 6 kts | 315° |
| 2026-05-06 18:02 | 57.67008 | 12.29222 | 512 ft | 8 kts | 310° |
| 2026-05-06 18:02 | 57.67027 | 12.29201 | 512 ft | 3 kts | 340° |
| 2026-05-06 18:02 | 57.67059 | 12.29206 | 512 ft | 7 kts | 19° |
| 2026-05-06 18:02 | 57.67125 | 12.29261 | 513 ft | 15 kts | 25° |
| 2026-05-06 18:03 | 57.67244 | 12.29372 | 514 ft | 22 kts | 26° |
| 2026-05-06 18:03 | 57.67387 | 12.29471 | 516 ft | 20 kts | 346° |
| 2026-05-06 18:03 | 57.67454 | 12.29312 | 516 ft | 16 kts | 288° |
| 2026-05-06 18:03 | 57.67460 | 12.29262 | 516 ft | 0 kts | 264° |
| 2026-05-06 18:05 | 57.67460 | 12.29261 | 516 ft | 1 kts | 264° |
| 2026-05-06 18:05 | 57.67456 | 12.29187 | 515 ft | 14 kts | 264° |
| 2026-05-06 18:05 | 57.67387 | 12.28979 | 514 ft | 17 kts | 207° |
| 2026-05-06 18:05 | 57.67353 | 12.28948 | 514 ft | 1 kts | 207° |
| 2026-05-06 18:06 | 57.67351 | 12.28945 | 514 ft | 0 kts | 207° |
| 2026-05-06 18:06 | 57.67350 | 12.28944 | 514 ft | 1 kts | 207° |
| 2026-05-06 18:06 | 57.67304 | 12.28901 | 514 ft | 27 kts | 206° |
| 2026-05-06 18:06 | 57.66916 | 12.28551 | 510 ft | 96 kts | 206° |
| 2026-05-06 18:07 | 57.66142 | 12.27832 | 660 ft | 137 kts | 209° |
| 2026-05-06 18:07 | 57.65268 | 12.27071 | 1304 ft | 148 kts | 208° |
| 2026-05-06 18:07 | 57.64298 | 12.26214 | 2011 ft | 157 kts | 208° |
| 2026-05-06 18:07 | 57.63307 | 12.25304 | 2873 ft | 159 kts | 208° |
| 2026-05-06 18:08 | 57.62283 | 12.24330 | 3599 ft | 171 kts | 207° |
| 2026-05-06 18:08 | 57.61187 | 12.23295 | 4324 ft | 183 kts | 206° |
| 2026-05-06 18:08 | 57.59996 | 12.22221 | 5000 ft | 198 kts | 205° |
| 2026-05-06 18:08 | 57.58699 | 12.21062 | 5709 ft | 214 kts | 205° |
| 2026-05-06 18:09 | 57.57402 | 12.19541 | 6428 ft | 229 kts | 226° |
| 2026-05-06 18:09 | 57.56658 | 12.16912 | 7368 ft | 235 kts | 251° |
| 2026-05-06 18:09 | 57.56275 | 12.13875 | 8040 ft | 252 kts | 257° |
| 2026-05-06 18:09 | 57.55934 | 12.10620 | 8758 ft | 267 kts | 257° |
| 2026-05-06 18:10 | 57.55573 | 12.07142 | 9562 ft | 276 kts | 257° |
| 2026-05-06 18:10 | 57.55207 | 12.03612 | 10430 ft | 282 kts | 258° |
| 2026-05-06 18:10 | 57.54821 | 11.99923 | 10932 ft | 298 kts | 258° |
| 2026-05-06 18:10 | 57.54416 | 11.96056 | 11437 ft | 311 kts | 258° |
| 2026-05-06 18:11 | 57.54052 | 11.92095 | 12214 ft | 314 kts | 267° |
| 2026-05-06 18:11 | 57.54152 | 11.88032 | 13038 ft | 316 kts | 275° |
| 2026-05-06 18:11 | 57.54383 | 11.83943 | 13821 ft | 318 kts | 276° |
| 2026-05-06 18:11 | 57.54631 | 11.79832 | 14552 ft | 320 kts | 276° |
| 2026-05-06 18:12 | 57.54879 | 11.75697 | 15297 ft | 322 kts | 276° |
| 2026-05-06 18:12 | 57.55127 | 11.71542 | 16012 ft | 325 kts | 276° |
| 2026-05-06 18:12 | 57.55374 | 11.67349 | 16735 ft | 326 kts | 275° |
| 2026-05-06 18:12 | 57.55621 | 11.63139 | 17454 ft | 328 kts | 275° |
| 2026-05-06 18:13 | 57.55868 | 11.58894 | 18153 ft | 331 kts | 275° |
| 2026-05-06 18:13 | 57.56115 | 11.54629 | 18788 ft | 332 kts | 275° |
| 2026-05-06 18:13 | 57.56362 | 11.50331 | 19380 ft | 334 kts | 275° |
| 2026-05-06 18:13 | 57.56608 | 11.46022 | 19982 ft | 336 kts | 274° |
| 2026-05-06 18:14 | 57.56853 | 11.41686 | 20586 ft | 337 kts | 274° |
| 2026-05-06 18:14 | 57.57098 | 11.37331 | 21147 ft | 339 kts | 274° |
| 2026-05-06 18:14 | 57.57343 | 11.32947 | 21724 ft | 341 kts | 274° |
| 2026-05-06 18:14 | 57.57588 | 11.28548 | 22284 ft | 343 kts | 274° |
| 2026-05-06 18:15 | 57.57832 | 11.24110 | 22839 ft | 345 kts | 273° |
| 2026-05-06 18:15 | 57.58077 | 11.19651 | 23379 ft | 347 kts | 273° |
| 2026-05-06 18:15 | 57.58321 | 11.15157 | 23844 ft | 349 kts | 273° |
| 2026-05-06 18:15 | 57.58722 | 11.10681 | 24252 ft | 356 kts | 285° |
| 2026-05-06 18:16 | 57.59933 | 11.06598 | 24700 ft | 368 kts | 304° |
| 2026-05-06 18:16 | 57.61866 | 11.03341 | 25090 ft | 381 kts | 317° |
| 2026-05-06 18:16 | 57.64078 | 11.00526 | 25465 ft | 386 kts | 320° |
| 2026-05-06 18:16 | 57.66344 | 10.97777 | 25840 ft | 390 kts | 320° |
| 2026-05-06 18:17 | 57.68626 | 10.95021 | 26239 ft | 392 kts | 320° |
| 2026-05-06 18:17 | 57.70921 | 10.92246 | 26612 ft | 395 kts | 320° |
| 2026-05-06 18:17 | 57.73239 | 10.89439 | 26974 ft | 397 kts | 320° |
| 2026-05-06 18:17 | 57.75563 | 10.86619 | 27323 ft | 400 kts | 320° |
| 2026-05-06 18:18 | 57.77905 | 10.83774 | 27691 ft | 403 kts | 319° |
| 2026-05-06 18:18 | 57.80261 | 10.80906 | 28058 ft | 405 kts | 319° |
| 2026-05-06 18:18 | 57.82627 | 10.78021 | 28404 ft | 407 kts | 319° |
| 2026-05-06 18:18 | 57.85010 | 10.75111 | 28733 ft | 409 kts | 319° |
| 2026-05-06 18:19 | 57.87402 | 10.72185 | 29063 ft | 412 kts | 319° |
| 2026-05-06 18:19 | 57.89808 | 10.69236 | 29387 ft | 414 kts | 319° |
| 2026-05-06 18:19 | 57.92227 | 10.66267 | 29701 ft | 416 kts | 319° |
| 2026-05-06 18:19 | 57.94624 | 10.63321 | 30017 ft | 418 kts | 319° |
| 2026-05-06 18:20 | 57.97063 | 10.60316 | 30287 ft | 419 kts | 319° |
| 2026-05-06 18:20 | 57.99510 | 10.57298 | 30534 ft | 421 kts | 319° |
| 2026-05-06 18:20 | 58.01965 | 10.54266 | 30785 ft | 423 kts | 319° |
| 2026-05-06 18:20 | 58.04428 | 10.51217 | 31022 ft | 424 kts | 319° |
| 2026-05-06 18:21 | 58.06899 | 10.48154 | 31257 ft | 426 kts | 319° |
| 2026-05-06 18:21 | 58.09373 | 10.45082 | 31493 ft | 427 kts | 319° |
| 2026-05-06 18:21 | 58.11862 | 10.41987 | 31707 ft | 428 kts | 319° |
| 2026-05-06 18:21 | 58.14353 | 10.38882 | 31914 ft | 430 kts | 319° |
| 2026-05-06 18:22 | 58.16854 | 10.35761 | 32126 ft | 431 kts | 319° |
| 2026-05-06 18:22 | 58.19359 | 10.32630 | 32313 ft | 432 kts | 319° |
| 2026-05-06 18:22 | 58.21875 | 10.29479 | 32507 ft | 434 kts | 319° |
| 2026-05-06 18:22 | 58.24393 | 10.26320 | 32674 ft | 435 kts | 319° |
| 2026-05-06 18:23 | 58.26920 | 10.23145 | 32853 ft | 436 kts | 319° |
| 2026-05-06 18:23 | 58.29451 | 10.19957 | 33009 ft | 437 kts | 319° |
| 2026-05-06 18:23 | 58.31989 | 10.16757 | 33178 ft | 438 kts | 319° |
| 2026-05-06 18:23 | 58.34439 | 10.13362 | 33316 ft | 434 kts | 313° |
| 2026-05-06 18:24 | 58.36767 | 10.09717 | 33523 ft | 432 kts | 312° |
| 2026-05-06 18:24 | 58.39077 | 10.06047 | 33735 ft | 432 kts | 312° |
| 2026-05-06 18:24 | 58.41382 | 10.02377 | 33949 ft | 431 kts | 312° |
| 2026-05-06 18:24 | 58.43682 | 9.98709 | 34107 ft | 432 kts | 312° |
| 2026-05-06 18:25 | 58.45986 | 9.95030 | 34263 ft | 432 kts | 313° |
| 2026-05-06 18:25 | 58.48289 | 9.91346 | 34412 ft | 432 kts | 313° |
| 2026-05-06 18:25 | 58.50590 | 9.87660 | 34563 ft | 432 kts | 313° |
| 2026-05-06 18:25 | 58.52893 | 9.83966 | 34710 ft | 432 kts | 313° |
| 2026-05-06 18:26 | 58.55197 | 9.80263 | 34855 ft | 432 kts | 313° |
| 2026-05-06 18:26 | 58.57500 | 9.76558 | 35013 ft | 432 kts | 313° |
| 2026-05-06 18:26 | 58.59802 | 9.72847 | 35157 ft | 433 kts | 313° |
| 2026-05-06 18:26 | 58.62103 | 9.69131 | 35293 ft | 433 kts | 313° |
| 2026-05-06 18:27 | 58.64407 | 9.65405 | 35434 ft | 433 kts | 313° |
| 2026-05-06 18:27 | 58.66712 | 9.61672 | 35570 ft | 434 kts | 313° |
| 2026-05-06 18:27 | 58.69018 | 9.57928 | 35710 ft | 434 kts | 313° |
| 2026-05-06 18:27 | 58.71319 | 9.54186 | 35855 ft | 434 kts | 313° |
| 2026-05-06 18:28 | 58.75941 | 9.46649 | 35974 ft | 438 kts | 313° |
| 2026-05-06 18:28 | 58.80604 | 9.39018 | 35964 ft | 438 kts | 314° |
| 2026-05-06 18:29 | 58.84403 | 9.32792 | 35958 ft | 426 kts | 313° |
| 2026-05-06 18:29 | 58.88947 | 9.25303 | 35964 ft | 433 kts | 313° |
| 2026-05-06 18:30 | 58.94313 | 9.16423 | 35960 ft | 439 kts | 313° |
| 2026-05-06 18:30 | 58.98878 | 9.08857 | 35960 ft | 427 kts | 313° |
| 2026-05-06 18:31 | 59.02670 | 9.02538 | 35963 ft | 432 kts | 313° |
| 2026-05-06 18:31 | 59.07070 | 8.94564 | 35969 ft | 435 kts | 309° |
| 2026-05-06 18:32 | 59.11345 | 8.86373 | 35963 ft | 426 kts | 309° |
| 2026-05-06 18:32 | 59.15548 | 8.78290 | 35973 ft | 427 kts | 309° |
| 2026-05-06 18:33 | 59.19775 | 8.70128 | 35972 ft | 434 kts | 309° |
| 2026-05-06 18:33 | 59.24078 | 8.61809 | 35971 ft | 426 kts | 309° |
| 2026-05-06 18:34 | 59.28239 | 8.53732 | 35981 ft | 427 kts | 309° |
| 2026-05-06 18:34 | 59.32513 | 8.45396 | 35983 ft | 433 kts | 309° |
| 2026-05-06 18:35 | 59.36712 | 8.37190 | 35984 ft | 425 kts | 309° |
| 2026-05-06 18:35 | 59.40899 | 8.28972 | 35996 ft | 428 kts | 309° |
| 2026-05-06 18:36 | 59.45138 | 8.20616 | 35997 ft | 434 kts | 309° |
| 2026-05-06 18:36 | 59.49353 | 8.12288 | 35994 ft | 426 kts | 309° |
| 2026-05-06 18:37 | 59.53535 | 8.03986 | 36002 ft | 430 kts | 309° |
| 2026-05-06 18:37 | 59.57763 | 7.95558 | 36005 ft | 432 kts | 309° |
| 2026-05-06 18:38 | 59.59867 | 7.91358 | 35888 ft | 431 kts | 309° |
| 2026-05-06 18:38 | 59.61992 | 7.87103 | 35199 ft | 438 kts | 309° |
| 2026-05-06 18:38 | 59.64137 | 7.82799 | 34531 ft | 442 kts | 309° |
| 2026-05-06 18:38 | 59.66297 | 7.78461 | 33907 ft | 442 kts | 309° |
| 2026-05-06 18:39 | 59.68443 | 7.74147 | 33227 ft | 439 kts | 308° |
| 2026-05-06 18:39 | 59.70577 | 7.69847 | 32628 ft | 436 kts | 308° |
| 2026-05-06 18:39 | 59.72690 | 7.65583 | 32068 ft | 431 kts | 307° |
| 2026-05-06 18:40 | 59.76844 | 7.57172 | 30987 ft | 423 kts | 306° |
| 2026-05-06 18:40 | 59.78894 | 7.53011 | 30433 ft | 419 kts | 305° |
| 2026-05-06 18:40 | 59.80921 | 7.48885 | 29856 ft | 416 kts | 305° |
| 2026-05-06 18:40 | 59.82931 | 7.44782 | 29239 ft | 411 kts | 305° |
| 2026-05-06 18:41 | 59.84909 | 7.40739 | 28696 ft | 405 kts | 305° |
| 2026-05-06 18:41 | 59.86862 | 7.36737 | 28180 ft | 400 kts | 305° |
| 2026-05-06 18:41 | 59.88785 | 7.32792 | 27671 ft | 395 kts | 306° |
| 2026-05-06 18:41 | 59.90682 | 7.28892 | 27165 ft | 389 kts | 306° |
| 2026-05-06 18:42 | 59.92553 | 7.25038 | 26664 ft | 384 kts | 306° |
| 2026-05-06 18:42 | 59.94399 | 7.21228 | 26172 ft | 379 kts | 306° |
| 2026-05-06 18:42 | 59.96218 | 7.17471 | 25687 ft | 374 kts | 306° |
| 2026-05-06 18:42 | 59.98012 | 7.13756 | 25202 ft | 370 kts | 306° |
| 2026-05-06 18:43 | 59.99789 | 7.10070 | 24727 ft | 366 kts | 306° |
| 2026-05-06 18:43 | 60.01676 | 7.06755 | 24250 ft | 375 kts | 320° |
| 2026-05-06 18:43 | 60.04233 | 7.05014 | 23754 ft | 398 kts | 343° |
| 2026-05-06 18:43 | 60.07000 | 7.04836 | 23200 ft | 403 kts | 350° |
| 2026-05-06 18:44 | 60.09780 | 7.04826 | 22734 ft | 397 kts | 350° |
| 2026-05-06 18:44 | 60.12518 | 7.04820 | 22374 ft | 390 kts | 350° |
| 2026-05-06 18:44 | 60.15207 | 7.04825 | 22033 ft | 383 kts | 350° |
| 2026-05-06 18:44 | 60.17846 | 7.04839 | 21694 ft | 376 kts | 350° |
| 2026-05-06 18:45 | 60.20437 | 7.04864 | 21364 ft | 369 kts | 350° |
| 2026-05-06 18:45 | 60.22991 | 7.04893 | 21036 ft | 365 kts | 350° |
| 2026-05-06 18:45 | 60.25389 | 7.04060 | 20721 ft | 339 kts | 327° |
| 2026-05-06 18:45 | 60.27185 | 7.01376 | 20416 ft | 311 kts | 301° |
| 2026-05-06 18:46 | 60.28076 | 6.97608 | 20130 ft | 292 kts | 279° |
| 2026-05-06 18:46 | 60.28062 | 6.93616 | 19861 ft | 285 kts | 258° |
| 2026-05-06 18:46 | 60.27464 | 6.89851 | 19592 ft | 279 kts | 255° |
| 2026-05-06 18:46 | 60.26906 | 6.86142 | 19331 ft | 274 kts | 257° |
| 2026-05-06 18:47 | 60.26460 | 6.82461 | 19067 ft | 268 kts | 259° |
| 2026-05-06 18:47 | 60.26084 | 6.78805 | 18823 ft | 265 kts | 261° |
| 2026-05-06 18:47 | 60.25748 | 6.75166 | 18579 ft | 264 kts | 262° |
| 2026-05-06 18:47 | 60.25430 | 6.71514 | 18346 ft | 265 kts | 262° |
| 2026-05-06 18:48 | 60.25117 | 6.67863 | 18073 ft | 264 kts | 262° |
| 2026-05-06 18:48 | 60.24806 | 6.64212 | 17794 ft | 266 kts | 262° |
| 2026-05-06 18:48 | 60.24555 | 6.60514 | 17498 ft | 266 kts | 271° |
| 2026-05-06 18:48 | 60.24949 | 6.56905 | 17239 ft | 266 kts | 287° |
| 2026-05-06 18:49 | 60.25662 | 6.53449 | 16955 ft | 269 kts | 291° |
| 2026-05-06 18:49 | 60.26453 | 6.50033 | 16695 ft | 271 kts | 292° |
| 2026-05-06 18:49 | 60.27275 | 6.46618 | 16522 ft | 270 kts | 292° |
| 2026-05-06 18:49 | 60.28102 | 6.43213 | 16298 ft | 272 kts | 292° |
| 2026-05-06 18:50 | 60.28936 | 6.39776 | 15984 ft | 272 kts | 293° |
| 2026-05-06 18:50 | 60.29765 | 6.36355 | 15648 ft | 272 kts | 293° |
| 2026-05-06 18:50 | 60.30601 | 6.32907 | 15291 ft | 274 kts | 294° |
| 2026-05-06 18:50 | 60.31436 | 6.29456 | 14923 ft | 274 kts | 294° |
| 2026-05-06 18:51 | 60.32275 | 6.25992 | 14571 ft | 276 kts | 294° |
| 2026-05-06 18:51 | 60.33118 | 6.22503 | 14201 ft | 277 kts | 294° |
| 2026-05-06 18:51 | 60.33961 | 6.19010 | 13836 ft | 278 kts | 295° |
| 2026-05-06 18:51 | 60.34811 | 6.15484 | 13422 ft | 279 kts | 295° |
| 2026-05-06 18:52 | 60.35657 | 6.11971 | 13045 ft | 277 kts | 295° |
| 2026-05-06 18:52 | 60.36499 | 6.08472 | 12693 ft | 276 kts | 295° |
| 2026-05-06 18:52 | 60.37337 | 6.04984 | 12359 ft | 275 kts | 295° |
| 2026-05-06 18:52 | 60.38171 | 6.01504 | 12020 ft | 275 kts | 295° |
| 2026-05-06 18:53 | 60.39001 | 5.98037 | 11686 ft | 274 kts | 295° |
| 2026-05-06 18:53 | 60.39828 | 5.94579 | 11351 ft | 273 kts | 295° |
| 2026-05-06 18:53 | 60.40651 | 5.91125 | 11012 ft | 272 kts | 295° |
| 2026-05-06 18:53 | 60.41472 | 5.87680 | 10686 ft | 271 kts | 295° |
| 2026-05-06 18:54 | 60.42289 | 5.84244 | 10347 ft | 270 kts | 295° |
| 2026-05-06 18:54 | 60.43099 | 5.80834 | 10086 ft | 265 kts | 295° |
| 2026-05-06 18:54 | 60.43889 | 5.77505 | 9729 ft | 263 kts | 295° |
| 2026-05-06 18:54 | 60.44683 | 5.74150 | 9283 ft | 264 kts | 295° |
| 2026-05-06 18:55 | 60.45465 | 5.70840 | 8924 ft | 257 kts | 295° |
| 2026-05-06 18:55 | 60.46224 | 5.67622 | 8609 ft | 249 kts | 295° |
| 2026-05-06 18:55 | 60.46971 | 5.64526 | 8322 ft | 239 kts | 296° |
| 2026-05-06 18:55 | 60.47378 | 5.61356 | 8007 ft | 233 kts | 266° |
| 2026-05-06 18:56 | 60.46784 | 5.58359 | 7736 ft | 234 kts | 229° |
| 2026-05-06 18:56 | 60.45502 | 5.56324 | 7439 ft | 235 kts | 226° |
| 2026-05-06 18:56 | 60.44672 | 5.53539 | 7333 ft | 229 kts | 256° |
| 2026-05-06 18:56 | 60.44610 | 5.50348 | 7129 ft | 230 kts | 279° |
| 2026-05-06 18:57 | 60.44905 | 5.47163 | 6886 ft | 228 kts | 281° |
| 2026-05-06 18:57 | 60.45387 | 5.44127 | 6615 ft | 227 kts | 295° |
| 2026-05-06 18:57 | 60.46084 | 5.41305 | 6286 ft | 228 kts | 296° |
| 2026-05-06 18:57 | 60.46800 | 5.38459 | 5952 ft | 226 kts | 296° |
| 2026-05-06 18:58 | 60.47512 | 5.35623 | 5659 ft | 226 kts | 296° |
| 2026-05-06 18:58 | 60.48224 | 5.32791 | 5361 ft | 224 kts | 296° |
| 2026-05-06 18:58 | 60.48930 | 5.29979 | 5077 ft | 224 kts | 296° |
| 2026-05-06 18:58 | 60.49504 | 5.27042 | 4604 ft | 226 kts | 275° |
| 2026-05-06 18:59 | 60.49372 | 5.23911 | 4299 ft | 221 kts | 261° |
| 2026-05-06 18:59 | 60.49123 | 5.20860 | 4037 ft | 215 kts | 261° |
| 2026-05-06 18:59 | 60.48763 | 5.18002 | 3748 ft | 207 kts | 242° |
| 2026-05-06 18:59 | 60.47743 | 5.16097 | 3518 ft | 199 kts | 205° |
| 2026-05-06 19:00 | 60.46409 | 5.15861 | 3327 ft | 193 kts | 169° |
| 2026-05-06 19:00 | 60.45149 | 5.16411 | 3089 ft | 190 kts | 172° |
| 2026-05-06 19:00 | 60.43876 | 5.16889 | 2827 ft | 183 kts | 172° |
| 2026-05-06 19:00 | 60.43061 | 5.17178 | 2660 ft | 177 kts | 173° |
| 2026-05-06 19:01 | 60.41478 | 5.17718 | 2359 ft | 169 kts | 173° |
| 2026-05-06 19:01 | 60.40329 | 5.18106 | 2147 ft | 166 kts | 173° |
| 2026-05-06 19:01 | 60.39191 | 5.18493 | 1916 ft | 165 kts | 173° |
| 2026-05-06 19:01 | 60.38067 | 5.18874 | 1702 ft | 163 kts | 173° |
| 2026-05-06 19:02 | 60.36944 | 5.19252 | 1471 ft | 164 kts | 173° |
| 2026-05-06 19:02 | 60.35864 | 5.19617 | 1266 ft | 152 kts | 173° |
| 2026-05-06 19:02 | 60.34840 | 5.19960 | 1069 ft | 146 kts | 172° |
| 2026-05-06 19:02 | 60.33847 | 5.20298 | 874 ft | 144 kts | 172° |
| 2026-05-06 19:03 | 60.32861 | 5.20627 | 685 ft | 143 kts | 172° |
| 2026-05-06 19:03 | 60.31886 | 5.20958 | 508 ft | 141 kts | 172° |
| 2026-05-06 19:03 | 60.30917 | 5.21286 | 325 ft | 141 kts | 172° |
| 2026-05-06 19:03 | 60.29985 | 5.21588 | 176 ft | 129 kts | 171° |
| 2026-05-06 19:04 | 60.29306 | 5.21822 | 166 ft | 73 kts | 173° |
| 2026-05-06 19:04 | 60.28962 | 5.21940 | 164 ft | 34 kts | 169° |
| 2026-05-06 19:04 | 60.28900 | 5.22003 | 163 ft | 0 kts | 103° |
| 2026-05-06 19:04 | 60.28901 | 5.22007 | 162 ft | 0 kts | 88° |
| 2026-05-06 19:05 | 60.28906 | 5.22069 | 162 ft | 10 kts | 81° |
| 2026-05-06 19:05 | 60.28912 | 5.22147 | 163 ft | 0 kts | 81° |
| 2026-05-06 19:05 | 60.28912 | 5.22152 | 163 ft | 1 kts | 81° |
| 2026-05-06 19:05 | 60.28917 | 5.22210 | 163 ft | 10 kts | 81° |
| 2026-05-06 19:06 | 60.28916 | 5.22352 | 164 ft | 5 kts | 116° |
| 2026-05-06 19:06 | 60.28895 | 5.22405 | 163 ft | 4 kts | 117° |
| 2026-05-06 19:06 | 60.28891 | 5.22448 | 163 ft | 4 kts | 92° |
| 2026-05-06 19:06 | 60.28893 | 5.22482 | 163 ft | 0 kts | 83° |